Time;durP1;ratioP1;P1;durP2;ratioP2;P2;SDS_P1;SDS_P2;PMS_P1;PMS_P2;Temp;Humidity;BMP_temperature;BMP_pressure;BME280_temperature;BME280_humidity;BME280_pressure;Samples;Min_cycle;Max_cycle;Signal;HPM_P1;HPM_P2
2021/09/13 00:00:09;;;;;;;;;4.00;4.00;;;;;;;;4967578;28;9109;-85
2021/09/13 00:02:37;;;;;;;;;8.33;8.33;;;;;;;;4960337;28;9240;-86
2021/09/13 00:05:05;;;;;;;;;8.00;8.00;;;;;;;;4968534;28;9283;-76
2021/09/13 00:07:32;;;;;;;;;7.33;7.33;;;;;;;;4967726;28;9307;-84
2021/09/13 00:09:59;;;;;;;;;7.00;7.00;;;;;;;;4968129;28;9223;-83
2021/09/13 00:12:28;;;;;;;;;9.00;9.00;;;;;;;;4968506;28;9232;-83
2021/09/13 00:14:55;;;;;;;;;3.00;3.00;;;;;;;;4967084;28;9279;-86
2021/09/13 00:17:22;;;;;;;;;5.33;5.33;;;;;;;;4969429;28;9267;-83
2021/09/13 00:19:50;;;;;;;;;7.33;7.33;;;;;;;;4964361;28;9295;-85
2021/09/13 00:22:18;;;;;;;;;8.67;8.67;;;;;;;;4969407;28;9371;-85
2021/09/13 00:24:45;;;;;;;;;10.33;8.00;;;;;;;;4967041;28;9493;-86
2021/09/13 00:27:12;;;;;;;;;8.67;8.67;;;;;;;;4965719;28;9332;-85
2021/09/13 00:29:41;;;;;;;;;6.00;6.00;;;;;;;;4964397;28;9375;-86
2021/09/13 00:32:08;;;;;;;;;5.00;5.00;;;;;;;;4963463;28;9214;-85
2021/09/13 00:34:36;;;;;;;;;6.33;6.33;;;;;;;;4966955;28;10002;-85
2021/09/13 00:37:03;;;;;;;;;7.00;7.00;;;;;;;;4965607;28;9314;-85
2021/09/13 00:39:31;;;;;;;;;8.67;7.33;;;;;;;;4973194;28;9886;-84
2021/09/13 00:41:58;;;;;;;;;8.67;7.33;;;;;;;;4965203;28;9645;-81
2021/09/13 00:44:26;;;;;;;;;9.33;7.00;;;;;;;;4968573;28;9135;-83
2021/09/13 00:46:55;;;;;;;;;4.00;4.00;;;;;;;;4964701;28;9107;-84
2021/09/13 00:49:23;;;;;;;;;9.67;9.67;;;;;;;;4961683;28;9231;-80
2021/09/13 00:51:51;;;;;;;;;6.67;6.67;;;;;;;;4966014;28;9279;-83
2021/09/13 00:54:19;;;;;;;;;7.00;7.00;;;;;;;;4968871;28;9378;-83
2021/09/13 00:56:46;;;;;;;;;7.00;7.00;;;;;;;;4967404;28;9429;-82
2021/09/13 00:59:15;;;;;;;;;7.00;7.00;;;;;;;;4967069;28;9453;-82
2021/09/13 01:01:42;;;;;;;;;10.00;8.67;;;;;;;;4966572;28;9223;-85
2021/09/13 01:04:11;;;;;;;;;4.00;4.00;;;;;;;;4965022;28;9477;-82
2021/09/13 01:06:38;;;;;;;;;10.00;10.00;;;;;;;;4967115;28;9731;-83
2021/09/13 01:09:06;;;;;;;;;10.33;7.33;;;;;;;;4967837;28;9281;-84
2021/09/13 01:11:33;;;;;;;;;9.00;7.67;;;;;;;;4978851;28;9344;-82
2021/09/13 01:14:01;;;;;;;;;9.00;7.00;;;;;;;;4971845;28;9451;-84
2021/09/13 01:16:28;;;;;;;;;8.00;8.00;;;;;;;;4964050;28;9340;-85
2021/09/13 01:18:55;;;;;;;;;5.00;5.00;;;;;;;;4967185;28;9292;-84
2021/09/13 01:21:25;;;;;;;;;7.67;7.67;;;;;;;;4965612;28;9290;-81
2021/09/13 01:23:53;;;;;;;;;4.00;4.00;;;;;;;;4967253;28;9266;-77
2021/09/13 01:26:21;;;;;;;;;7.00;7.00;;;;;;;;4965864;28;9201;-83
2021/09/13 01:28:48;;;;;;;;;7.33;7.33;;;;;;;;4966754;28;9403;-84
2021/09/13 01:31:15;;;;;;;;;5.67;5.67;;;;;;;;4966445;28;9178;-85
2021/09/13 01:33:43;;;;;;;;;7.00;7.00;;;;;;;;4964982;28;9294;-84
2021/09/13 01:36:10;;;;;;;;;7.00;7.00;;;;;;;;4967547;28;9357;-79
2021/09/13 01:38:37;;;;;;;;;10.00;8.00;;;;;;;;4969440;28;9327;-82
2021/09/13 01:41:06;;;;;;;;;8.33;8.33;;;;;;;;4967379;28;9303;-84
2021/09/13 01:43:33;;;;;;;;;8.33;8.33;;;;;;;;4961266;28;9477;-84
2021/09/13 01:46:00;;;;;;;;;7.00;5.00;;;;;;;;4964415;28;9438;-84
2021/09/13 01:48:28;;;;;;;;;8.00;8.00;;;;;;;;4963798;28;9411;-85
2021/09/13 01:50:55;;;;;;;;;8.67;7.00;;;;;;;;4964496;28;9349;-85
2021/09/13 01:53:22;;;;;;;;;7.33;7.33;;;;;;;;4965045;28;9377;-85
2021/09/13 01:55:50;;;;;;;;;7.00;7.00;;;;;;;;4963613;28;9572;-85
2021/09/13 01:58:18;;;;;;;;;5.00;5.00;;;;;;;;4975112;28;9609;-84
2021/09/13 02:00:46;;;;;;;;;8.00;8.00;;;;;;;;4965573;28;9317;-87
2021/09/13 02:03:13;;;;;;;;;7.00;7.00;;;;;;;;4964724;28;9475;-85
2021/09/13 02:05:40;;;;;;;;;10.25;8.25;;;;;;;;4966649;28;9346;-83
2021/09/13 02:08:07;;;;;;;;;7.50;5.50;;;;;;;;4966616;28;9454;-81
2021/09/13 02:10:35;;;;;;;;;4.67;4.67;;;;;;;;4965829;28;9589;-86
2021/09/13 02:13:02;;;;;;;;;5.00;5.00;;;;;;;;4964824;28;9520;-85
2021/09/13 02:15:31;;;;;;;;;7.33;7.33;;;;;;;;4969461;28;9269;-79
2021/09/13 02:17:58;;;;;;;;;7.00;7.00;;;;;;;;4960052;28;9450;-84
2021/09/13 02:20:25;;;;;;;;;8.67;7.67;;;;;;;;4966105;28;9357;-86
2021/09/13 02:22:52;;;;;;;;;6.00;6.00;;;;;;;;4967402;28;9431;-85
2021/09/13 02:25:20;;;;;;;;;7.67;5.00;;;;;;;;4966165;28;9650;-81
2021/09/13 02:27:47;;;;;;;;;7.67;7.67;;;;;;;;4966930;28;9516;-85
2021/09/13 02:30:14;;;;;;;;;6.33;6.33;;;;;;;;4963784;28;10200;-84
2021/09/13 02:32:43;;;;;;;;;7.00;7.00;;;;;;;;4959057;28;9429;-85
2021/09/13 02:35:11;;;;;;;;;4.75;4.75;;;;;;;;4962989;28;9655;-86
2021/09/13 02:37:38;;;;;;;;;6.75;6.75;;;;;;;;4967516;28;9752;-87
2021/09/13 02:40:07;;;;;;;;;7.75;7.75;;;;;;;;4966279;28;9582;-87
2021/09/13 02:42:36;;;;;;;;;8.00;7.00;;;;;;;;4965547;28;9682;-83
2021/09/13 02:45:04;;;;;;;;;9.25;8.00;;;;;;;;4961718;28;9564;-85
2021/09/13 02:47:31;;;;;;;;;10.50;9.50;;;;;;;;4961005;28;9696;-86
2021/09/13 02:50:00;;;;;;;;;6.00;6.00;;;;;;;;4966161;28;9659;-86
2021/09/13 02:52:27;;;;;;;;;10.00;10.00;;;;;;;;4964775;28;9568;-86
2021/09/13 02:54:54;;;;;;;;;10.25;10.25;;;;;;;;4966106;28;9580;-84
2021/09/13 02:57:23;;;;;;;;;9.75;9.75;;;;;;;;4965394;28;9621;-89
2021/09/13 02:59:50;;;;;;;;;13.00;13.00;;;;;;;;4962080;28;9644;-90
2021/09/13 03:02:18;;;;;;;;;11.75;9.25;;;;;;;;4963752;28;9892;-87
2021/09/13 03:04:45;;;;;;;;;10.50;10.50;;;;;;;;4966922;28;9633;-77
2021/09/13 03:07:14;;;;;;;;;8.50;8.50;;;;;;;;4962788;28;9853;-77
2021/09/13 03:09:41;;;;;;;;;9.00;9.00;;;;;;;;4965675;28;9613;-81
2021/09/13 03:12:10;;;;;;;;;9.75;9.75;;;;;;;;4965735;28;9784;-87
2021/09/13 03:14:38;;;;;;;;;9.75;9.75;;;;;;;;4963500;28;9581;-85
2021/09/13 03:17:05;;;;;;;;;9.50;9.50;;;;;;;;4964341;28;9687;-84
2021/09/13 03:19:32;;;;;;;;;12.00;10.25;;;;;;;;4958758;28;9571;-82
2021/09/13 03:21:59;;;;;;;;;12.75;12.75;;;;;;;;4964450;28;9832;-82
2021/09/13 03:24:28;;;;;;;;;13.50;10.25;;;;;;;;4965903;28;9628;-85
2021/09/13 03:26:55;;;;;;;;;11.25;9.50;;;;;;;;4964414;28;9708;-84
2021/09/13 03:29:23;;;;;;;;;10.50;10.50;;;;;;;;4964799;28;9792;-83
2021/09/13 03:31:50;;;;;;;;;10.25;10.25;;;;;;;;4954196;28;9619;-86
2021/09/13 03:34:17;;;;;;;;;13.50;13.50;;;;;;;;4964196;28;9654;-84
2021/09/13 03:36:44;;;;;;;;;14.75;9.75;;;;;;;;4953498;28;9734;-86
2021/09/13 03:39:12;;;;;;;;;18.25;14.25;;;;;;;;4965304;28;9958;-87
2021/09/13 03:41:40;;;;;;;;;13.25;10.75;;;;;;;;4964836;28;9664;-87
2021/09/13 03:44:08;;;;;;;;;14.75;14.00;;;;;;;;4962516;28;9576;-83
2021/09/13 03:46:35;;;;;;;;;13.00;13.00;;;;;;;;4964755;28;9764;-86
2021/09/13 03:49:02;;;;;;;;;17.75;17.75;;;;;;;;4956999;28;9738;-87
2021/09/13 03:51:29;;;;;;;;;14.75;14.75;;;;;;;;4965351;28;9839;-84
2021/09/13 03:53:57;;;;;;;;;15.75;15.75;;;;;;;;4963356;28;9926;-86
2021/09/13 03:56:24;;;;;;;;;16.50;14.75;;;;;;;;4965618;28;9676;-82
2021/09/13 03:58:53;;;;;;;;;19.75;19.75;;;;;;;;4965564;28;9710;-86
2021/09/13 04:01:21;;;;;;;;;15.75;15.50;;;;;;;;4960409;28;9729;-86
2021/09/13 04:03:50;;;;;;;;;16.00;15.00;;;;;;;;4962722;28;9796;-85
2021/09/13 04:06:24;;;;;;;;;16.25;16.25;;;;;;;;4966395;28;9602;-84
2021/09/13 04:11:49;;;;;;;;;16.00;15.00;;;;;;;;4958710;28;9788;-88
2021/09/13 04:14:18;;;;;;;;;13.75;13.25;;;;;;;;4968366;28;10401;-89
2021/09/13 04:16:45;;;;;;;;;13.00;11.25;;;;;;;;4961583;28;9620;-83
2021/09/13 04:19:13;;;;;;;;;11.50;11.50;;;;;;;;4963586;28;9610;-87
2021/09/13 04:21:41;;;;;;;;;11.75;9.00;;;;;;;;4963143;28;9678;-82
2021/09/13 04:24:08;;;;;;;;;12.50;12.25;;;;;;;;4962826;28;9768;-86
2021/09/13 04:26:35;;;;;;;;;12.75;12.75;;;;;;;;4962409;28;9836;-84
2021/09/13 04:29:03;;;;;;;;;13.50;10.25;;;;;;;;4963637;28;9738;-79
2021/09/13 04:31:32;;;;;;;;;13.00;13.00;;;;;;;;4962810;28;9701;-83
2021/09/13 04:33:59;;;;;;;;;11.75;10.75;;;;;;;;4959555;28;9726;-81
2021/09/13 04:36:26;;;;;;;;;13.00;10.00;;;;;;;;4967273;28;9830;-83
2021/09/13 04:38:54;;;;;;;;;15.25;10.50;;;;;;;;4964931;28;9731;-81
2021/09/13 04:41:21;;;;;;;;;12.00;12.00;;;;;;;;4964716;28;9790;-86
2021/09/13 04:43:49;;;;;;;;;15.00;14.00;;;;;;;;4968472;28;9872;-83
2021/09/13 04:46:16;;;;;;;;;16.50;14.00;;;;;;;;4967021;28;9809;-88
2021/09/13 04:48:45;;;;;;;;;15.75;14.00;;;;;;;;4965742;28;9754;-81
2021/09/13 04:51:12;;;;;;;;;15.25;14.50;;;;;;;;4967535;28;9620;-81
2021/09/13 04:53:40;;;;;;;;;17.50;15.00;;;;;;;;4962178;28;9810;-84
2021/09/13 04:56:07;;;;;;;;;12.75;10.25;;;;;;;;4967256;28;9909;-82
2021/09/13 04:58:35;;;;;;;;;12.75;12.75;;;;;;;;4966046;28;9814;-83
2021/09/13 05:01:02;;;;;;;;;5.75;5.75;;;;;;;;4966791;28;9854;-87
2021/09/13 05:03:29;;;;;;;;;12.00;12.00;;;;;;;;4965823;28;9823;-84
2021/09/13 05:05:58;;;;;;;;;14.50;14.50;;;;;;;;4963818;28;9915;-84
2021/09/13 05:08:25;;;;;;;;;13.75;13.75;;;;;;;;4969083;28;9939;-85
2021/09/13 05:10:53;;;;;;;;;17.00;15.50;;;;;;;;4964490;28;9905;-82
2021/09/13 05:13:20;;;;;;;;;20.00;16.00;;;;;;;;4964145;28;9824;-81
2021/09/13 05:15:47;;;;;;;;;12.75;10.50;;;;;;;;4963658;28;9916;-81
2021/09/13 05:18:15;;;;;;;;;9.25;9.00;;;;;;;;4964951;28;9797;-78
2021/09/13 05:20:42;;;;;;;;;13.25;13.00;;;;;;;;4964128;28;9719;-72
2021/09/13 05:23:11;;;;;;;;;14.25;13.00;;;;;;;;4967022;28;9889;-72
2021/09/13 05:25:38;;;;;;;;;15.00;15.00;;;;;;;;4964431;28;9921;-70
2021/09/13 05:28:05;;;;;;;;;12.75;12.75;;;;;;;;4962313;28;10010;-70
2021/09/13 05:30:32;;;;;;;;;15.25;13.50;;;;;;;;4963742;28;9846;-72
2021/09/13 05:33:00;;;;;;;;;16.00;14.00;;;;;;;;4961023;28;10010;-71
2021/09/13 05:35:27;;;;;;;;;19.75;16.00;;;;;;;;4964668;28;10085;-70
2021/09/13 05:37:54;;;;;;;;;17.50;13.50;;;;;;;;4961867;28;10727;-70
2021/09/13 05:40:23;;;;;;;;;25.50;24.50;;;;;;;;4964323;28;9979;-72
2021/09/13 05:42:51;;;;;;;;;18.25;18.25;;;;;;;;4964441;28;9874;-72
2021/09/13 05:45:18;;;;;;;;;15.00;15.00;;;;;;;;4962105;28;9929;-72
2021/09/13 05:47:45;;;;;;;;;16.50;15.50;;;;;;;;4962501;28;9798;-72
2021/09/13 05:50:13;;;;;;;;;17.00;17.00;;;;;;;;4956941;28;10600;-72
2021/09/13 05:52:40;;;;;;;;;12.00;12.00;;;;;;;;4959940;28;9829;-71
2021/09/13 05:55:08;;;;;;;;;16.00;12.75;;;;;;;;4965463;28;9825;-72
2021/09/13 05:57:37;;;;;;;;;14.25;14.25;;;;;;;;4959765;28;9852;-71
2021/09/13 06:00:05;;;;;;;;;13.00;12.75;;;;;;;;4961609;28;9846;-72
2021/09/13 06:02:33;;;;;;;;;7.50;7.50;;;;;;;;4958462;28;9689;-71
2021/09/13 06:05:00;;;;;;;;;13.00;13.00;;;;;;;;4967161;28;9631;-71
2021/09/13 06:07:27;;;;;;;;;16.50;16.50;;;;;;;;4964980;28;9586;-72
2021/09/13 06:09:55;;;;;;;;;13.00;13.00;;;;;;;;4966799;28;9656;-71
2021/09/13 06:12:22;;;;;;;;;14.50;11.50;;;;;;;;4964844;28;9574;-72
2021/09/13 06:14:51;;;;;;;;;14.25;12.00;;;;;;;;4963574;28;9605;-71
2021/09/13 06:17:19;;;;;;;;;11.00;11.00;;;;;;;;4959926;28;9501;-71
2021/09/13 06:19:47;;;;;;;;;14.67;14.67;;;;;;;;4961701;28;9490;-71
2021/09/13 06:22:15;;;;;;;;;11.00;10.00;;;;;;;;4958810;28;9405;-72
2021/09/13 06:24:42;;;;;;;;;21.25;16.00;;;;;;;;4962754;28;9629;-71
2021/09/13 06:27:10;;;;;;;;;15.67;14.00;;;;;;;;4966562;28;9425;-71
2021/09/13 06:29:38;;;;;;;;;18.00;16.00;;;;;;;;4952731;28;9513;-71
2021/09/13 06:32:07;;;;;;;;;21.00;19.25;;;;;;;;4965055;28;9407;-70
2021/09/13 06:34:34;;;;;;;;;20.75;17.00;;;;;;;;4963973;28;9688;-70
2021/09/13 06:37:02;;;;;;;;;16.00;16.00;;;;;;;;4965887;28;9493;-70
2021/09/13 06:39:29;;;;;;;;;17.67;16.00;;;;;;;;4965856;28;9481;-70
2021/09/13 06:41:56;;;;;;;;;21.33;21.33;;;;;;;;4965462;28;9574;-70
2021/09/13 06:44:25;;;;;;;;;21.50;20.75;;;;;;;;4962680;28;9512;-71
2021/09/13 06:47:03;;;;;;;;;23.50;21.25;;;;;;;;4963187;28;9514;-70
2021/09/13 06:49:33;;;;;;;;;29.75;24.75;;;;;;;;4956127;28;9587;-70
2021/09/13 06:52:01;;;;;;;;;42.00;35.00;;;;;;;;4963750;28;9646;-70
2021/09/13 06:54:28;;;;;;;;;39.75;32.50;;;;;;;;4966103;28;9741;-70
2021/09/13 06:56:56;;;;;;;;;44.00;35.00;;;;;;;;4962141;28;9756;-70
2021/09/13 06:59:24;;;;;;;;;44.50;35.00;;;;;;;;4964009;28;9618;-71
2021/09/13 07:01:51;;;;;;;;;40.75;38.00;;;;;;;;4962749;28;9718;-70
2021/09/13 07:04:19;;;;;;;;;37.67;32.00;;;;;;;;4962288;28;9937;-71
2021/09/13 07:06:50;;;;;;;;;47.00;36.00;;;;;;;;4963615;28;9501;-70
2021/09/13 07:09:17;;;;;;;;;42.75;34.00;;;;;;;;4962095;28;9590;-70
2021/09/13 07:11:44;;;;;;;;;42.67;36.00;;;;;;;;4963287;28;9743;-71
2021/09/13 07:14:11;;;;;;;;;34.33;34.00;;;;;;;;4969712;28;9352;-72
2021/09/13 07:16:39;;;;;;;;;44.67;36.67;;;;;;;;4967858;28;9467;-72
2021/09/13 07:19:06;;;;;;;;;33.33;30.67;;;;;;;;4960192;28;9249;-73
2021/09/13 07:21:33;;;;;;;;;45.00;37.00;;;;;;;;4962031;28;9308;-72
2021/09/13 07:24:02;;;;;;;;;44.33;35.67;;;;;;;;4962586;28;9200;-73
2021/09/13 07:26:30;;;;;;;;;35.75;31.00;;;;;;;;4959993;28;9019;-73
2021/09/13 07:28:57;;;;;;;;;50.67;40.67;;;;;;;;4961658;28;8885;-73
2021/09/13 07:31:25;;;;;;;;;48.33;42.33;;;;;;;;4943351;28;9024;-72
2021/09/13 07:33:52;;;;;;;;;39.33;35.33;;;;;;;;4958477;28;9214;-72
2021/09/13 07:36:19;;;;;;;;;47.00;39.00;;;;;;;;4963932;28;8970;-73
2021/09/13 07:38:46;;;;;;;;;40.75;34.75;;;;;;;;4959594;28;9043;-73
2021/09/13 07:41:15;;;;;;;;;36.75;34.25;;;;;;;;4961564;28;8885;-74
2021/09/13 07:43:42;;;;;;;;;41.50;34.50;;;;;;;;4963918;28;9004;-74
2021/09/13 07:46:10;;;;;;;;;41.75;35.00;;;;;;;;4961520;28;9323;-73
2021/09/13 07:48:37;;;;;;;;;42.25;37.00;;;;;;;;4960071;28;10817;-73
2021/09/13 07:51:04;;;;;;;;;39.50;33.75;;;;;;;;4960954;28;8901;-74
2021/09/13 07:53:32;;;;;;;;;44.75;35.75;;;;;;;;4963182;28;8887;-74
2021/09/13 07:55:59;;;;;;;;;38.50;34.75;;;;;;;;4961981;28;8889;-74
2021/09/13 07:58:28;;;;;;;;;38.50;35.50;;;;;;;;4965302;28;8909;-74
2021/09/13 08:00:55;;;;;;;;;40.00;34.00;;;;;;;;4957541;28;8824;-73
2021/09/13 08:03:22;;;;;;;;;29.00;27.25;;;;;;;;4958421;28;8912;-73
2021/09/13 08:05:50;;;;;;;;;35.50;32.50;;;;;;;;4964866;28;9008;-73
2021/09/13 08:08:17;;;;;;;;;30.25;28.25;;;;;;;;4965666;28;8889;-74
2021/09/13 08:10:44;;;;;;;;;31.25;29.50;;;;;;;;4955324;28;8873;-73
2021/09/13 08:13:11;;;;;;;;;28.00;25.75;;;;;;;;4967712;28;8869;-73
2021/09/13 08:15:40;;;;;;;;;30.25;30.25;;;;;;;;4972411;28;9010;-74
2021/09/13 08:18:07;;;;;;;;;31.50;30.50;;;;;;;;4966800;28;8870;-74
2021/09/13 08:20:35;;;;;;;;;27.25;26.75;;;;;;;;4962035;28;8920;-74
2021/09/13 08:23:03;;;;;;;;;28.00;22.50;;;;;;;;4966226;28;8931;-74
2021/09/13 08:25:30;;;;;;;;;27.75;24.50;;;;;;;;4968874;28;8904;-74
2021/09/13 08:27:58;;;;;;;;;25.75;22.50;;;;;;;;4959234;28;8860;-74
2021/09/13 08:30:26;;;;;;;;;26.00;23.75;;;;;;;;4963659;28;8800;-74
2021/09/13 08:32:55;;;;;;;;;20.50;18.25;;;;;;;;4966750;28;8870;-73
2021/09/13 08:35:22;;;;;;;;;14.50;14.50;;;;;;;;4961649;28;9630;-75
2021/09/13 08:37:50;;;;;;;;;19.75;16.50;;;;;;;;4967788;28;8912;-74
2021/09/13 08:40:17;;;;;;;;;17.00;17.00;;;;;;;;4966192;28;8901;-74
2021/09/13 08:42:48;;;;;;;;;23.00;23.00;;;;;;;;4965045;28;8893;-74
2021/09/13 08:45:20;;;;;;;;;16.00;12.75;;;;;;;;4954249;28;8871;-74
2021/09/13 08:47:59;;;;;;;;;20.75;15.50;;;;;;;;4962121;28;8897;-74
2021/09/13 08:50:36;;;;;;;;;22.75;20.00;;;;;;;;4955885;28;9646;-73
2021/09/13 08:53:04;;;;;;;;;21.00;21.00;;;;;;;;4967473;28;9648;-73
2021/09/13 08:55:32;;;;;;;;;15.25;14.75;;;;;;;;4967615;28;9714;-73
2021/09/13 08:57:59;;;;;;;;;18.25;18.25;;;;;;;;4965951;28;9639;-73
2021/09/13 09:00:27;;;;;;;;;20.25;20.25;;;;;;;;4961382;28;8817;-73
2021/09/13 09:02:55;;;;;;;;;20.75;19.75;;;;;;;;4944798;28;10136;-73
2021/09/13 09:05:24;;;;;;;;;16.75;16.75;;;;;;;;4963259;28;8892;-73
2021/09/13 09:07:54;;;;;;;;;23.50;21.50;;;;;;;;4962429;28;8853;-73
2021/09/13 09:10:25;;;;;;;;;21.25;21.25;;;;;;;;4964365;28;9000;-74
2021/09/13 09:13:08;;;;;;;;;23.00;19.50;;;;;;;;4964989;28;8924;-73
2021/09/13 09:15:35;;;;;;;;;16.80;16.60;;;;;;;;4964859;28;8852;-74
2021/09/13 09:18:02;;;;;;;;;23.20;23.20;;;;;;;;4961300;28;9000;-74
2021/09/13 09:20:42;;;;;;;;;20.20;17.00;;;;;;;;4963733;28;8853;-74
2021/09/13 09:23:11;;;;;;;;;18.00;18.00;;;;;;;;4962799;28;8999;-74
2021/09/13 09:25:40;;;;;;;;;18.40;18.40;;;;;;;;4964184;28;8964;-74
2021/09/13 09:28:11;;;;;;;;;18.80;18.40;;;;;;;;4963547;28;8869;-74
2021/09/13 09:30:40;;;;;;;;;16.00;16.00;;;;;;;;4964495;28;8868;-74
2021/09/13 09:33:10;;;;;;;;;16.40;16.40;;;;;;;;4966375;28;8859;-74
2021/09/13 09:35:56;;;;;;;;;18.00;18.00;;;;;;;;4964761;28;8881;-74
2021/09/13 09:38:33;;;;;;;;;13.60;12.00;;;;;;;;4963798;28;8886;-74
2021/09/13 09:41:06;;;;;;;;;15.00;15.00;;;;;;;;4965015;28;8877;-74
2021/09/13 09:43:54;;;;;;;;;14.20;14.20;;;;;;;;4961634;28;8873;-74
2021/09/13 09:46:22;;;;;;;;;17.00;17.00;;;;;;;;4960288;28;8873;-73
2021/09/13 09:48:50;;;;;;;;;17.40;16.60;;;;;;;;4965775;28;8885;-74
2021/09/13 09:51:28;;;;;;;;;16.40;16.40;;;;;;;;4965408;28;8963;-74
2021/09/13 09:53:57;;;;;;;;;14.40;14.40;;;;;;;;4954774;28;8876;-74
2021/09/13 09:56:27;;;;;;;;;15.60;14.20;;;;;;;;4962453;28;8881;-74
2021/09/13 09:58:59;;;;;;;;;13.80;12.40;;;;;;;;4961135;28;8958;-74
2021/09/13 10:01:48;;;;;;;;;12.00;11.80;;;;;;;;4953394;28;8842;-74
2021/09/13 10:04:18;;;;;;;;;12.60;12.60;;;;;;;;4962578;28;8984;-74
2021/09/13 10:06:47;;;;;;;;;10.00;10.00;;;;;;;;4971366;28;8880;-74
2021/09/13 10:09:17;;;;;;;;;11.60;10.00;;;;;;;;4965952;28;8873;-74
2021/09/13 10:11:45;;;;;;;;;10.20;10.00;;;;;;;;4965291;28;8884;-74
2021/09/13 10:14:14;;;;;;;;;10.00;8.00;;;;;;;;4966292;28;8879;-74
2021/09/13 10:16:43;;;;;;;;;11.00;11.00;;;;;;;;4962700;28;8853;-74
2021/09/13 10:19:11;;;;;;;;;12.00;12.00;;;;;;;;4958894;28;8877;-74
2021/09/13 10:21:39;;;;;;;;;12.20;12.20;;;;;;;;4961532;28;8871;-74
2021/09/13 10:24:08;;;;;;;;;10.00;10.00;;;;;;;;4962356;28;9707;-74
2021/09/13 10:26:40;;;;;;;;;12.00;11.00;;;;;;;;4963987;28;8908;-73
2021/09/13 10:29:19;;;;;;;;;13.00;11.60;;;;;;;;4962825;28;8895;-74
2021/09/13 10:32:11;;;;;;;;;10.80;9.00;;;;;;;;4958747;28;8841;-73
2021/09/13 10:34:50;;;;;;;;;12.00;12.00;;;;;;;;4940456;28;8882;-73
2021/09/13 10:37:19;;;;;;;;;8.40;8.40;;;;;;;;4962521;28;8986;-73
2021/09/13 10:40:10;;;;;;;;;10.60;10.60;;;;;;;;4966043;28;9038;-74
2021/09/13 10:42:55;;;;;;;;;12.00;10.40;;;;;;;;4950268;28;8881;-75
2021/09/13 10:45:28;;;;;;;;;12.00;12.00;;;;;;;;4960113;28;8881;-73
2021/09/13 10:48:07;;;;;;;;;12.00;12.00;;;;;;;;4965941;28;8942;-74
2021/09/13 10:50:53;;;;;;;;;12.20;12.20;;;;;;;;4963225;28;8881;-74
2021/09/13 10:53:35;;;;;;;;;9.40;9.20;;;;;;;;4961445;28;8882;-73
2021/09/13 10:56:05;;;;;;;;;14.20;9.80;;;;;;;;4963671;28;8877;-73
2021/09/13 10:58:43;;;;;;;;;10.00;8.80;;;;;;;;4962586;28;8869;-74
2021/09/13 11:01:20;;;;;;;;;9.20;9.20;;;;;;;;4963642;28;8822;-73
2021/09/13 11:03:56;;;;;;;;;9.80;9.80;;;;;;;;4957547;28;9660;-74
2021/09/13 11:06:38;;;;;;;;;12.20;12.20;;;;;;;;4966606;28;8895;-74
2021/09/13 11:09:07;;;;;;;;;10.40;10.40;;;;;;;;4963056;28;8939;-74
2021/09/13 11:11:36;;;;;;;;;11.20;11.00;;;;;;;;4962851;28;8885;-74
2021/09/13 11:14:07;;;;;;;;;10.20;10.20;;;;;;;;4961082;28;9492;-76
2021/09/13 11:16:36;;;;;;;;;9.00;9.00;;;;;;;;4960344;28;8881;-75
2021/09/13 11:19:09;;;;;;;;;10.40;8.80;;;;;;;;4964309;28;8901;-75
2021/09/13 11:21:37;;;;;;;;;6.80;6.80;;;;;;;;4960706;28;8894;-73
2021/09/13 11:24:06;;;;;;;;;9.60;9.60;;;;;;;;4963969;28;8889;-75
2021/09/13 11:26:35;;;;;;;;;6.80;6.80;;;;;;;;4965600;28;8927;-73
2021/09/13 11:29:05;;;;;;;;;6.40;6.40;;;;;;;;4963139;28;10588;-74
2021/09/13 11:31:37;;;;;;;;;9.20;9.20;;;;;;;;4963547;28;9626;-76
2021/09/13 11:34:06;;;;;;;;;9.60;6.80;;;;;;;;4964542;28;9667;-74
2021/09/13 11:36:34;;;;;;;;;7.40;7.40;;;;;;;;4964378;28;8895;-75
2021/09/13 11:39:05;;;;;;;;;7.80;7.80;;;;;;;;4961332;28;9027;-74
2021/09/13 11:41:32;;;;;;;;;6.80;6.80;;;;;;;;4945582;28;8962;-73
2021/09/13 11:44:02;;;;;;;;;7.80;7.80;;;;;;;;4959501;28;8963;-75
2021/09/13 11:46:31;;;;;;;;;7.40;7.40;;;;;;;;4960751;28;8885;-74
2021/09/13 11:49:17;;;;;;;;;6.00;6.00;;;;;;;;4961120;28;8869;-73
2021/09/13 11:52:07;;;;;;;;;8.80;8.00;;;;;;;;4960235;28;8935;-74
2021/09/13 11:54:40;;;;;;;;;5.00;5.00;;;;;;;;4962973;28;8871;-74
2021/09/13 11:57:19;;;;;;;;;5.80;5.80;;;;;;;;4961356;28;8889;-74
2021/09/13 11:59:52;;;;;;;;;7.00;7.00;;;;;;;;4962967;28;8897;-74
2021/09/13 12:02:22;;;;;;;;;6.40;6.00;;;;;;;;4963874;28;8877;-74
2021/09/13 12:04:50;;;;;;;;;6.80;6.80;;;;;;;;4964204;28;8881;-74
2021/09/13 12:07:18;;;;;;;;;8.20;6.60;;;;;;;;4957384;28;8918;-74
2021/09/13 12:09:48;;;;;;;;;4.40;4.40;;;;;;;;4959024;28;8890;-74
2021/09/13 12:12:16;;;;;;;;;6.00;6.00;;;;;;;;4960707;28;8932;-74
2021/09/13 12:14:44;;;;;;;;;6.00;6.00;;;;;;;;4964268;28;9722;-74
2021/09/13 12:17:14;;;;;;;;;6.00;6.00;;;;;;;;4963359;28;8877;-74
2021/09/13 12:19:44;;;;;;;;;6.20;6.20;;;;;;;;4964342;28;9766;-74
2021/09/13 12:22:13;;;;;;;;;6.00;6.00;;;;;;;;4963941;28;9023;-74
2021/09/13 12:24:42;;;;;;;;;6.80;5.20;;;;;;;;4963854;28;9018;-74
2021/09/13 12:27:21;;;;;;;;;5.40;5.40;;;;;;;;4963060;28;8882;-74
2021/09/13 12:30:07;;;;;;;;;7.00;4.00;;;;;;;;4961744;28;8905;-74
2021/09/13 12:32:36;;;;;;;;;5.80;5.80;;;;;;;;4938165;28;9778;-74
2021/09/13 12:35:07;;;;;;;;;4.00;4.00;;;;;;;;4942708;28;8868;-74
2021/09/13 12:37:37;;;;;;;;;4.00;4.00;;;;;;;;4941013;29;8902;-74
2021/09/13 12:40:10;;;;;;;;;5.00;5.00;;;;;;;;4938896;29;8884;-74
2021/09/13 12:42:38;;;;;;;;;4.00;4.00;;;;;;;;4943249;28;8879;-74
2021/09/13 12:45:06;;;;;;;;;4.20;4.20;;;;;;;;4943755;28;9757;-74
2021/09/13 12:47:34;;;;;;;;;5.00;4.00;;;;;;;;4943436;28;8891;-74
2021/09/13 12:50:02;;;;;;;;;5.20;4.00;;;;;;;;4945084;28;8856;-74
2021/09/13 12:52:47;;;;;;;;;2.60;2.60;;;;;;;;4944355;28;8907;-74
2021/09/13 12:55:19;;;;;;;;;3.80;3.80;;;;;;;;4943943;28;8978;-74
2021/09/13 12:57:47;;;;;;;;;5.40;5.20;;;;;;;;4948821;28;8898;-74
2021/09/13 13:00:16;;;;;;;;;4.00;4.00;;;;;;;;4946997;28;8876;-74
2021/09/13 13:02:44;;;;;;;;;3.00;3.00;;;;;;;;4971330;28;8862;-74
2021/09/13 13:05:33;;;;;;;;;4.40;4.40;;;;;;;;4965946;28;8861;-74
2021/09/13 13:08:03;;;;;;;;;3.00;3.00;;;;;;;;4966556;28;8905;-74
2021/09/13 13:10:32;;;;;;;;;4.00;4.00;;;;;;;;4958688;28;8865;-74
2021/09/13 13:12:59;;;;;;;;;3.40;3.40;;;;;;;;4963339;28;8854;-74
2021/09/13 13:15:27;;;;;;;;;5.60;5.60;;;;;;;;4965443;28;8879;-74
2021/09/13 13:17:55;;;;;;;;;6.20;4.40;;;;;;;;4965122;28;8877;-74
2021/09/13 13:20:22;;;;;;;;;4.40;4.40;;;;;;;;4966258;28;8885;-76
2021/09/13 13:22:50;;;;;;;;;3.60;3.60;;;;;;;;4966364;28;8892;-77
2021/09/13 13:25:19;;;;;;;;;4.40;4.20;;;;;;;;4967516;28;8927;-74
2021/09/13 13:27:46;;;;;;;;;3.00;3.00;;;;;;;;4965984;28;9628;-74
2021/09/13 13:30:16;;;;;;;;;2.80;2.80;;;;;;;;4960866;28;8896;-74
2021/09/13 13:32:44;;;;;;;;;5.20;3.40;;;;;;;;4963817;28;8988;-74
2021/09/13 13:35:11;;;;;;;;;3.60;3.60;;;;;;;;4956357;28;8891;-74
2021/09/13 13:37:39;;;;;;;;;3.80;3.80;;;;;;;;4964266;28;8901;-74
2021/09/13 13:40:07;;;;;;;;;3.00;3.00;;;;;;;;4964251;28;8891;-74
2021/09/13 13:42:37;;;;;;;;;4.00;4.00;;;;;;;;4962851;28;8935;-74
2021/09/13 13:45:05;;;;;;;;;3.20;3.20;;;;;;;;4966134;28;8861;-74
2021/09/13 13:47:33;;;;;;;;;2.00;2.00;;;;;;;;4962982;28;8997;-74
2021/09/13 13:50:00;;;;;;;;;3.20;3.20;;;;;;;;4966974;28;8923;-74
2021/09/13 13:52:27;;;;;;;;;2.60;2.60;;;;;;;;4962778;28;8861;-74
2021/09/13 13:54:55;;;;;;;;;4.40;4.40;;;;;;;;4963428;28;8903;-74
2021/09/13 13:57:22;;;;;;;;;4.00;4.00;;;;;;;;4966508;28;9684;-74
2021/09/13 13:59:51;;;;;;;;;2.60;2.60;;;;;;;;4964416;28;8876;-74
2021/09/13 14:02:18;;;;;;;;;4.80;4.80;;;;;;;;4962378;28;8883;-74
2021/09/13 14:04:45;;;;;;;;;3.80;3.80;;;;;;;;4965758;28;8900;-74
2021/09/13 14:07:13;;;;;;;;;4.40;4.40;;;;;;;;4965851;28;8956;-74
2021/09/13 14:09:40;;;;;;;;;6.00;4.00;;;;;;;;4964640;28;8873;-74
2021/09/13 14:12:08;;;;;;;;;1.60;1.60;;;;;;;;4965060;28;8869;-74
2021/09/13 14:14:35;;;;;;;;;2.40;2.40;;;;;;;;4957648;28;8865;-74
2021/09/13 14:17:04;;;;;;;;;3.00;3.00;;;;;;;;4964819;28;9640;-75
2021/09/13 14:19:31;;;;;;;;;3.40;3.40;;;;;;;;4963758;28;8833;-74
2021/09/13 14:21:58;;;;;;;;;3.60;2.60;;;;;;;;4964568;28;8862;-74
2021/09/13 14:24:26;;;;;;;;;3.00;3.00;;;;;;;;4964677;28;8888;-74
2021/09/13 14:26:53;;;;;;;;;2.60;2.60;;;;;;;;4965457;28;8967;-74
2021/09/13 14:29:21;;;;;;;;;3.60;3.60;;;;;;;;4962757;28;8861;-74
2021/09/13 14:31:48;;;;;;;;;2.60;2.60;;;;;;;;4956493;28;8984;-74
2021/09/13 14:34:17;;;;;;;;;1.20;1.20;;;;;;;;4965714;28;8893;-73
2021/09/13 14:36:44;;;;;;;;;2.60;2.60;;;;;;;;4964283;28;8869;-73
2021/09/13 14:39:12;;;;;;;;;2.40;2.20;;;;;;;;4965117;28;8907;-73
2021/09/13 14:41:39;;;;;;;;;2.00;2.00;;;;;;;;4965885;28;8873;-74
2021/09/13 14:44:08;;;;;;;;;3.00;3.00;;;;;;;;4965567;28;8901;-74
2021/09/13 14:46:36;;;;;;;;;2.60;2.60;;;;;;;;4966194;28;9008;-73
2021/09/13 14:49:04;;;;;;;;;2.80;2.80;;;;;;;;4964053;28;8889;-73
2021/09/13 14:51:32;;;;;;;;;2.00;2.00;;;;;;;;4966203;28;8900;-73
2021/09/13 14:54:03;;;;;;;;;2.00;2.00;;;;;;;;4964993;28;8912;-73
2021/09/13 14:56:30;;;;;;;;;2.60;2.00;;;;;;;;4953630;28;8907;-73